createdAt,value
2022-10-18T00:00:04.052Z,10.71
2022-10-18T00:02:31.184Z,10.69
2022-10-18T00:04:58.200Z,10.66
2022-10-18T00:07:24.905Z,10.62
2022-10-18T00:09:51.545Z,10.51
2022-10-18T00:12:18.494Z,10.58
2022-10-18T00:14:45.114Z,10.60
2022-10-18T00:17:11.833Z,10.58
2022-10-18T00:19:38.777Z,10.55
2022-10-18T00:22:05.397Z,10.53
2022-10-18T00:24:32.015Z,10.43
2022-10-18T00:26:58.967Z,10.51
2022-10-18T00:29:25.668Z,10.48
2022-10-18T00:31:52.282Z,10.32
2022-10-18T00:34:19.248Z,10.45
2022-10-18T00:36:45.922Z,10.45
2022-10-18T00:39:16.944Z,10.44
2022-10-18T00:41:44.571Z,10.42
2022-10-18T00:44:11.121Z,10.40
2022-10-18T00:46:46.802Z,10.39
2022-10-18T00:49:27.585Z,10.39
2022-10-18T00:52:17.110Z,10.35
2022-10-18T00:54:46.351Z,10.36
2022-10-18T00:57:14.297Z,10.36
2022-10-18T00:59:42.776Z,10.34
2022-10-18T01:02:10.319Z,10.35
2022-10-18T01:04:37.285Z,10.29
2022-10-18T01:07:37.869Z,10.33
2022-10-18T01:10:17.155Z,10.25
2022-10-18T01:13:12.961Z,10.32
2022-10-18T01:18:34.698Z,10.30
2022-10-18T01:21:09.403Z,10.23
2022-10-18T01:23:54.557Z,10.29
2022-10-18T01:26:39.738Z,10.28
2022-10-18T01:29:17.421Z,10.23
2022-10-18T01:31:49.520Z,10.27
2022-10-18T01:34:19.260Z,10.26
2022-10-18T01:36:53.796Z,10.24
2022-10-18T01:39:29.495Z,10.20
2022-10-18T01:41:59.508Z,10.14
2022-10-18T01:44:29.649Z,10.21
2022-10-18T01:46:57.496Z,10.20
2022-10-18T01:49:24.913Z,10.11
2022-10-18T01:51:51.771Z,10.20
2022-10-18T01:54:24.659Z,10.22
2022-10-18T01:57:08.449Z,10.21
2022-10-18T01:59:41.428Z,10.19
2022-10-18T02:02:30.248Z,10.19
2022-10-18T02:05:09.726Z,10.21
2022-10-18T02:08:19.201Z,10.20
2022-10-18T02:10:58.435Z,10.20
2022-10-18T02:13:30.493Z,10.19
2022-10-18T02:16:01.650Z,10.18
2022-10-18T02:18:36.425Z,10.18
2022-10-18T02:21:08.100Z,10.16
2022-10-18T02:23:35.966Z,10.16
2022-10-18T02:26:03.011Z,10.06
2022-10-18T02:28:30.147Z,10.13
2022-10-18T02:31:11.940Z,10.12
2022-10-18T02:33:55.730Z,10.10
2022-10-18T02:36:30.559Z,10.08
2022-10-18T02:39:03.739Z,10.07
2022-10-18T02:41:31.097Z,10.04
2022-10-18T02:43:58.004Z,9.94
2022-10-18T02:46:24.864Z,10.04
2022-10-18T02:48:51.754Z,10.02
2022-10-18T02:51:18.602Z,9.95
2022-10-18T02:53:45.210Z,10.01
2022-10-18T02:56:11.852Z,10.00
2022-10-18T02:58:38.758Z,9.99
2022-10-18T03:01:05.557Z,9.86
2022-10-18T03:03:32.249Z,9.98
2022-10-18T03:05:59.155Z,9.99
2022-10-18T03:08:26.170Z,9.97
2022-10-18T03:10:52.851Z,9.86
2022-10-18T03:13:20.219Z,9.96
2022-10-18T03:15:48.341Z,9.96
2022-10-18T03:18:15.678Z,9.92
2022-10-18T03:20:42.720Z,9.93
2022-10-18T03:23:09.387Z,9.86
2022-10-18T03:25:36.034Z,9.93
2022-10-18T03:28:03.248Z,9.93
2022-10-18T03:30:29.897Z,9.94
2022-10-18T03:32:56.576Z,9.85
2022-10-18T03:35:23.698Z,9.93
2022-10-18T03:37:50.644Z,9.93
2022-10-18T03:40:17.615Z,9.87
2022-10-18T03:42:44.662Z,9.91
2022-10-18T03:45:11.370Z,9.89
2022-10-18T03:47:38.284Z,9.72
2022-10-18T03:50:05.782Z,9.87
2022-10-18T03:52:32.713Z,9.92
2022-10-18T03:54:59.750Z,9.84
2022-10-18T03:57:26.728Z,9.89
2022-10-18T03:59:53.377Z,9.79
2022-10-18T04:02:20.039Z,9.87
2022-10-18T04:04:46.976Z,9.77
2022-10-18T04:07:13.587Z,9.85
2022-10-18T04:09:40.197Z,9.87
2022-10-18T04:12:07.135Z,9.85
2022-10-18T04:14:33.861Z,9.77
2022-10-18T04:17:00.569Z,9.85
2022-10-18T04:19:27.790Z,9.88
2022-10-18T04:21:54.458Z,9.88
2022-10-18T04:24:21.212Z,9.87
2022-10-18T04:26:48.186Z,9.85
2022-10-18T04:29:14.914Z,9.74
2022-10-18T04:31:41.537Z,9.83
2022-10-18T04:34:09.734Z,9.83
2022-10-18T04:36:36.638Z,9.85
2022-10-18T04:39:03.437Z,9.78
2022-10-18T04:41:30.514Z,9.84
2022-10-18T04:43:57.172Z,9.83
2022-10-18T04:46:23.895Z,9.85
2022-10-18T04:48:50.817Z,9.85
2022-10-18T04:51:17.433Z,9.84
2022-10-18T04:53:44.026Z,9.85
2022-10-18T04:56:10.933Z,9.86
2022-10-18T04:58:37.566Z,9.80
2022-10-18T05:01:07.847Z,9.87
2022-10-18T05:03:35.157Z,9.81
2022-10-18T05:06:03.153Z,9.89
2022-10-18T05:08:30.852Z,9.97
2022-10-18T05:10:57.925Z,10.00
2022-10-18T05:13:25.026Z,10.05
2022-10-18T05:15:51.782Z,10.08
2022-10-18T05:18:18.748Z,10.10
2022-10-18T05:20:46.587Z,10.13
2022-10-18T05:23:13.224Z,10.15
2022-10-18T05:25:41.753Z,10.10
2022-10-18T05:28:21.095Z,10.13
2022-10-18T05:30:55.902Z,10.19
2022-10-18T05:33:22.559Z,10.29
2022-10-18T05:35:49.226Z,10.26
2022-10-18T05:38:16.269Z,10.31
2022-10-18T05:40:42.898Z,10.33
2022-10-18T05:43:09.590Z,10.36
2022-10-18T05:45:36.860Z,10.38
2022-10-18T05:48:05.025Z,10.40
2022-10-18T05:50:35.487Z,10.41
2022-10-18T05:53:12.265Z,10.41
2022-10-18T05:55:39.522Z,10.40
2022-10-18T05:58:06.687Z,10.40
2022-10-18T06:00:33.372Z,10.43
2022-10-18T06:03:00.629Z,10.38
2022-10-18T06:16:31.963Z,11.43
2022-10-18T06:19:00.077Z,11.43
2022-10-18T06:21:27.138Z,11.06
2022-10-18T06:23:56.216Z,11.09
2022-10-18T06:26:23.284Z,11.14
2022-10-18T06:28:50.022Z,11.14
2022-10-18T06:31:17.171Z,11.08
2022-10-18T06:33:45.618Z,11.15
2022-10-18T06:36:18.357Z,11.18
2022-10-18T06:38:45.509Z,11.18
2022-10-18T06:41:12.284Z,11.20
2022-10-18T06:43:39.050Z,11.12
2022-10-18T06:46:08.190Z,11.18
2022-10-18T06:48:36.469Z,11.13
2022-10-18T06:51:05.795Z,11.23
2022-10-18T06:53:35.240Z,11.21
2022-10-18T06:56:06.146Z,11.33
2022-10-18T06:58:34.059Z,11.40
2022-10-18T07:01:09.796Z,11.42
2022-10-18T07:03:37.014Z,11.42
2022-10-18T07:06:09.715Z,11.39
2022-10-18T07:08:37.689Z,11.41
2022-10-18T07:11:06.248Z,11.55
2022-10-18T07:13:34.203Z,11.61
2022-10-18T07:16:17.253Z,11.69
2022-10-18T07:18:51.336Z,11.71
2022-10-18T07:21:20.758Z,11.88
2022-10-18T07:23:48.639Z,11.94
2022-10-18T07:26:23.193Z,11.99
2022-10-18T07:28:55.199Z,12.04
2022-10-18T07:31:23.064Z,12.02
2022-10-18T07:33:50.472Z,12.12
2022-10-18T07:36:17.615Z,12.18
2022-10-18T07:38:44.884Z,12.26
2022-10-18T07:41:13.849Z,12.33
2022-10-18T07:43:46.479Z,12.43
2022-10-18T07:46:14.925Z,12.50
2022-10-18T07:48:41.768Z,12.53
2022-10-18T07:51:09.260Z,12.59
2022-10-18T07:53:36.715Z,12.63
2022-10-18T07:56:08.749Z,12.71
2022-10-18T07:58:37.238Z,12.77
2022-10-18T08:01:06.409Z,12.85
2022-10-18T08:03:35.073Z,12.88
2022-10-18T08:06:02.525Z,12.92
2022-10-18T08:08:30.151Z,12.99
2022-10-18T08:11:12.852Z,13.11
2022-10-18T08:13:39.749Z,13.17
2022-10-18T08:16:09.601Z,13.19
2022-10-18T08:18:36.935Z,13.35
2022-10-18T08:21:05.860Z,13.38
2022-10-18T08:23:33.352Z,13.38
2022-10-18T08:26:06.418Z,13.43
2022-10-18T08:28:36.268Z,13.45
2022-10-18T08:31:07.947Z,13.49
2022-10-18T08:33:36.276Z,13.55
2022-10-18T08:36:05.941Z,13.57
2022-10-18T08:38:37.837Z,13.61
2022-10-18T08:41:23.695Z,13.66
2022-10-18T08:44:22.878Z,13.74
2022-10-18T08:46:58.803Z,13.78
2022-10-18T08:49:30.004Z,13.79
2022-10-18T08:51:58.182Z,13.91
2022-10-18T08:54:33.701Z,13.97
2022-10-18T08:57:03.146Z,13.97
2022-10-18T08:59:39.366Z,14.04
2022-10-18T09:02:22.916Z,14.17
2022-10-18T09:05:01.179Z,14.26
2022-10-18T09:07:41.000Z,14.35
2022-10-18T09:10:27.145Z,14.44
2022-10-18T09:13:16.308Z,14.48
2022-10-18T09:15:59.804Z,14.57
2022-10-18T09:18:59.286Z,14.65
2022-10-18T09:21:41.242Z,14.81
2022-10-18T09:24:13.940Z,14.95
2022-10-18T09:26:46.886Z,15.09
2022-10-18T09:29:32.737Z,15.13
2022-10-18T09:32:06.658Z,15.23
2022-10-18T09:34:43.224Z,15.28
2022-10-18T09:37:14.574Z,15.32
2022-10-18T09:39:42.974Z,15.31
2022-10-18T09:42:30.158Z,15.35
2022-10-18T09:45:02.123Z,15.42
2022-10-18T09:47:37.751Z,15.41
2022-10-18T09:50:36.649Z,15.49
2022-10-18T09:53:38.727Z,15.60
2022-10-18T09:56:11.131Z,15.74
2022-10-18T09:58:37.628Z,15.79
2022-10-18T10:01:04.531Z,15.80
2022-10-18T10:03:31.664Z,15.82
2022-10-18T10:06:22.603Z,15.85
2022-10-18T10:09:07.195Z,15.88
2022-10-18T10:11:40.484Z,15.99
2022-10-18T10:14:23.032Z,16.08
2022-10-18T10:16:58.563Z,16.12
2022-10-18T10:19:32.812Z,16.17
2022-10-18T10:22:04.086Z,16.21
2022-10-18T10:24:44.591Z,16.28
2022-10-18T10:27:43.685Z,16.22
2022-10-18T10:30:29.472Z,16.40
2022-10-18T10:32:57.053Z,16.36
2022-10-18T10:35:59.634Z,16.44
2022-10-18T10:38:26.999Z,16.55
2022-10-18T10:40:54.756Z,16.60
2022-10-18T10:43:39.117Z,16.62
2022-10-18T10:46:11.739Z,16.64
2022-10-18T10:48:47.839Z,16.70
2022-10-18T10:51:18.690Z,16.75
2022-10-18T10:53:52.636Z,16.80
2022-10-18T10:56:27.813Z,16.82
2022-10-18T10:58:57.196Z,16.86
2022-10-18T11:01:28.504Z,16.89
2022-10-18T11:03:58.531Z,16.95
2022-10-18T11:06:45.171Z,16.92
2022-10-18T11:09:23.201Z,17.06
2022-10-18T11:12:03.174Z,17.13
2022-10-18T11:14:36.881Z,17.18
2022-10-18T11:17:22.656Z,17.27
2022-10-18T11:20:09.705Z,17.29
2022-10-18T11:22:44.251Z,17.31
2022-10-18T11:25:15.112Z,17.41
2022-10-18T11:28:11.652Z,17.51
2022-10-18T11:31:19.888Z,17.60
2022-10-18T11:34:09.811Z,17.62
2022-10-18T11:36:56.037Z,17.63
2022-10-18T11:39:51.439Z,17.62
2022-10-18T11:42:39.066Z,17.64
2022-10-18T11:45:26.696Z,17.58
2022-10-18T11:48:13.083Z,17.67
2022-10-18T11:51:08.977Z,17.60
2022-10-18T11:54:14.553Z,17.71
2022-10-18T11:56:49.871Z,17.75
2022-10-18T11:59:28.612Z,17.69
2022-10-18T12:02:14.242Z,17.74
2022-10-18T12:05:22.705Z,17.81
2022-10-18T12:08:01.092Z,17.83
2022-10-18T12:10:44.459Z,17.90
2022-10-18T12:13:42.164Z,17.91
2022-10-18T12:16:10.947Z,17.94
2022-10-18T12:18:48.805Z,17.97
2022-10-18T12:21:24.574Z,17.93
2022-10-18T12:24:11.209Z,17.95
2022-10-18T12:26:38.606Z,18.03
2022-10-18T12:29:18.996Z,17.94
2022-10-18T12:31:57.257Z,18.08
2022-10-18T12:34:23.943Z,18.06
2022-10-18T12:36:53.908Z,18.08
2022-10-18T12:40:10.659Z,18.03
2022-10-18T12:42:42.321Z,18.12
2022-10-18T12:45:21.013Z,18.07
2022-10-18T12:47:48.169Z,18.17
2022-10-18T12:50:30.167Z,18.11
2022-10-18T12:53:05.883Z,18.21
2022-10-18T12:55:37.223Z,18.22
2022-10-18T12:58:22.881Z,18.16
2022-10-18T13:00:49.543Z,18.18
2022-10-18T13:03:17.293Z,18.27
2022-10-18T13:05:55.630Z,18.28
2022-10-18T13:08:36.415Z,18.32
2022-10-18T13:11:09.229Z,18.35
2022-10-18T13:13:52.107Z,18.39
2022-10-18T13:16:27.592Z,18.40
2022-10-18T13:18:59.568Z,18.42
2022-10-18T13:21:41.548Z,18.42
2022-10-18T13:24:24.322Z,18.41
2022-10-18T13:27:42.386Z,18.39
2022-10-18T13:30:33.026Z,18.31
2022-10-18T13:33:13.943Z,18.37
2022-10-18T13:35:57.770Z,18.35
2022-10-18T13:38:50.502Z,18.33
2022-10-18T13:41:20.883Z,18.30
2022-10-18T13:43:55.043Z,18.23
2022-10-18T13:46:34.066Z,18.25
2022-10-18T13:49:38.920Z,18.23
2022-10-18T13:52:24.201Z,18.20
2022-10-18T13:55:20.511Z,18.07
2022-10-18T13:57:53.511Z,18.00
2022-10-18T14:00:49.146Z,18.03
2022-10-18T14:03:56.115Z,18.01
2022-10-18T14:06:26.929Z,17.93
2022-10-18T14:09:09.571Z,17.96
2022-10-18T14:11:56.885Z,17.85
2022-10-18T14:14:41.154Z,17.86
2022-10-18T14:17:34.837Z,17.83
2022-10-18T14:20:21.127Z,17.81
2022-10-18T14:23:11.266Z,17.73
2022-10-18T14:25:38.945Z,17.74
2022-10-18T14:28:31.279Z,17.71
2022-10-18T14:31:06.369Z,17.60
2022-10-18T14:33:43.904Z,17.61
2022-10-18T14:36:16.065Z,17.55
2022-10-18T14:38:47.615Z,17.43
2022-10-18T14:41:21.101Z,17.41
2022-10-18T14:43:48.345Z,17.35
2022-10-18T14:46:27.273Z,17.29
2022-10-18T14:48:59.075Z,17.27
2022-10-18T14:51:28.725Z,17.23
2022-10-18T14:53:56.367Z,17.17
2022-10-18T14:56:30.282Z,17.04
2022-10-18T14:59:01.475Z,16.98
2022-10-18T15:01:31.115Z,16.91
2022-10-18T15:04:01.050Z,16.85
2022-10-18T15:06:27.901Z,16.83
2022-10-18T15:08:57.482Z,16.78
2022-10-18T15:11:26.267Z,16.74
2022-10-18T15:14:09.032Z,16.68
2022-10-18T15:16:38.974Z,16.61
2022-10-18T15:19:14.921Z,16.55
2022-10-18T15:22:30.179Z,16.50
2022-10-18T15:25:12.509Z,16.45
2022-10-18T15:27:40.270Z,16.41
2022-10-18T15:30:22.840Z,16.37
2022-10-18T15:32:55.779Z,16.25
2022-10-18T15:35:28.741Z,16.28
2022-10-18T15:37:58.438Z,16.21
2022-10-18T15:40:28.074Z,16.05
2022-10-18T15:42:58.213Z,16.11
2022-10-18T15:45:24.830Z,16.01
2022-10-18T15:48:06.793Z,16.07
2022-10-18T15:50:39.591Z,16.06
2022-10-18T15:53:49.519Z,16.04
2022-10-18T15:56:27.398Z,16.03
2022-10-18T15:58:57.027Z,16.01
2022-10-18T16:01:29.669Z,15.98
2022-10-18T16:03:56.718Z,15.95
2022-10-18T16:06:23.427Z,15.91
2022-10-18T16:08:52.488Z,15.89
2022-10-18T16:11:21.851Z,15.87
2022-10-18T16:13:49.843Z,15.86
2022-10-18T16:16:27.799Z,15.82
2022-10-18T16:18:55.826Z,15.80
2022-10-18T16:21:30.641Z,15.79
2022-10-18T16:23:58.373Z,15.75
2022-10-18T16:26:26.533Z,15.80
2022-10-18T16:28:55.842Z,15.76
2022-10-18T16:31:26.414Z,15.69
2022-10-18T16:33:54.937Z,15.58
2022-10-18T16:36:27.458Z,15.59
2022-10-18T16:38:55.054Z,15.49
2022-10-18T16:41:22.467Z,15.54
2022-10-18T16:43:50.326Z,15.50
2022-10-18T16:46:18.643Z,15.49
2022-10-18T16:48:46.565Z,15.46
2022-10-18T16:51:13.391Z,15.45
2022-10-18T16:53:40.063Z,15.40
2022-10-18T16:56:16.919Z,15.39
2022-10-18T16:58:43.966Z,15.36
2022-10-18T17:01:13.295Z,15.35
2022-10-18T17:03:40.384Z,15.32
2022-10-18T17:06:21.205Z,15.31
2022-10-18T17:08:49.437Z,15.20
2022-10-18T17:11:17.562Z,15.28
2022-10-18T17:13:44.701Z,15.27
2022-10-18T17:16:24.431Z,15.28
2022-10-18T17:18:51.255Z,15.26
2022-10-18T17:21:18.458Z,15.21
2022-10-18T17:23:45.135Z,15.17
2022-10-18T17:26:28.471Z,15.15
2022-10-18T17:29:02.991Z,15.14
2022-10-18T17:31:31.491Z,15.03
2022-10-18T17:34:01.433Z,15.07
2022-10-18T17:36:29.760Z,15.05
2022-10-18T17:38:57.113Z,15.03
2022-10-18T17:41:24.071Z,15.00
2022-10-18T17:43:50.719Z,14.90
2022-10-18T17:46:18.008Z,14.91
2022-10-18T17:48:45.739Z,14.97
2022-10-18T17:51:15.124Z,14.97
2022-10-18T17:53:41.881Z,14.95
2022-10-18T17:56:10.180Z,14.84
2022-10-18T17:58:37.104Z,14.91
2022-10-18T18:01:18.529Z,14.89
2022-10-18T18:03:47.781Z,14.84
2022-10-18T18:06:20.100Z,14.82
2022-10-18T18:08:48.504Z,14.80
2022-10-18T18:11:17.338Z,14.77
2022-10-18T18:13:44.027Z,14.74
2022-10-18T18:16:11.719Z,14.75
2022-10-18T18:18:38.385Z,14.73
2022-10-18T18:21:05.242Z,14.72
2022-10-18T18:23:32.280Z,14.72
2022-10-18T18:25:59.086Z,14.65
2022-10-18T18:28:25.795Z,14.69
2022-10-18T18:30:52.786Z,14.61
2022-10-18T18:33:19.642Z,14.63
2022-10-18T18:35:59.460Z,14.63
2022-10-18T18:38:26.777Z,14.50
2022-10-18T18:41:09.154Z,14.57
2022-10-18T18:43:37.131Z,14.58
2022-10-18T18:46:04.307Z,14.54
2022-10-18T18:48:33.680Z,14.45
2022-10-18T18:51:02.139Z,14.39
2022-10-18T18:53:29.741Z,14.44
2022-10-18T18:56:05.473Z,14.43
2022-10-18T18:58:34.149Z,14.42
2022-10-18T19:01:06.898Z,14.43
2022-10-18T19:03:34.170Z,14.44
2022-10-18T19:06:15.704Z,14.43
2022-10-18T19:08:46.594Z,14.42
2022-10-18T19:11:17.106Z,14.39
2022-10-18T19:13:44.347Z,14.35
2022-10-18T19:16:28.404Z,14.30
2022-10-18T19:18:55.262Z,14.29
2022-10-18T19:21:23.542Z,14.29
2022-10-18T19:23:50.459Z,14.28
2022-10-18T19:26:44.511Z,14.26
2022-10-18T19:29:21.721Z,14.27
2022-10-18T19:31:50.437Z,14.18
2022-10-18T19:34:20.645Z,14.22
2022-10-18T19:36:48.815Z,14.25
2022-10-18T19:39:21.971Z,14.24
2022-10-18T19:41:51.530Z,14.15
2022-10-18T19:44:19.889Z,14.22
2022-10-18T19:46:47.692Z,14.22
2022-10-18T19:49:14.967Z,14.23
2022-10-18T19:51:41.909Z,14.20
2022-10-18T19:54:10.819Z,14.14
2022-10-18T19:56:37.789Z,14.20
2022-10-18T19:59:04.841Z,14.21
2022-10-18T20:01:31.643Z,14.18
2022-10-18T20:03:59.018Z,14.15
2022-10-18T20:06:25.850Z,14.10
2022-10-18T20:08:52.566Z,14.07
2022-10-18T20:11:22.369Z,14.04
2022-10-18T20:13:49.603Z,14.01
2022-10-18T20:16:18.412Z,13.98
2022-10-18T20:18:47.165Z,13.93
2022-10-18T20:21:16.711Z,13.85
2022-10-18T20:23:44.675Z,13.91
2022-10-18T20:26:20.555Z,13.89
2022-10-18T20:29:00.612Z,13.88
2022-10-18T20:31:35.503Z,13.85
2022-10-18T20:34:04.684Z,13.84
2022-10-18T20:36:32.212Z,13.80
2022-10-18T20:38:59.632Z,13.78
2022-10-18T20:41:32.407Z,13.69
2022-10-18T20:44:01.811Z,13.74
2022-10-18T20:46:34.342Z,13.60
2022-10-18T20:49:02.050Z,13.71
2022-10-18T20:51:28.851Z,13.61
2022-10-18T20:53:56.269Z,13.66
2022-10-18T20:56:27.197Z,13.61
2022-10-18T20:58:56.541Z,13.64
2022-10-18T21:01:26.331Z,13.67
2022-10-18T21:03:54.878Z,13.67
2022-10-18T21:06:24.639Z,13.68
2022-10-18T21:09:00.313Z,13.67
2022-10-18T21:11:29.246Z,13.58
2022-10-18T21:14:00.051Z,13.64
2022-10-18T21:16:27.253Z,13.63
2022-10-18T21:18:54.860Z,13.61
2022-10-18T21:21:25.033Z,13.52
2022-10-18T21:23:52.216Z,13.56
2022-10-18T21:26:24.671Z,13.57
2022-10-18T21:28:53.095Z,13.56
2022-10-18T21:31:22.272Z,13.53
2022-10-18T21:33:53.700Z,13.43
2022-10-18T21:36:21.229Z,13.41
2022-10-18T21:38:47.872Z,13.48
2022-10-18T21:41:16.435Z,13.45
2022-10-18T21:43:47.155Z,13.38
2022-10-18T21:46:15.645Z,13.42
2022-10-18T21:48:44.489Z,13.39
2022-10-18T21:51:12.711Z,13.38
2022-10-18T21:53:42.621Z,13.39
2022-10-18T21:56:15.127Z,13.40
2022-10-18T21:58:42.813Z,13.36
2022-10-18T22:01:15.239Z,13.25
2022-10-18T22:03:43.514Z,13.21
2022-10-18T22:06:15.434Z,13.15
2022-10-18T22:08:57.170Z,13.10
2022-10-18T22:11:27.417Z,13.16
2022-10-18T22:13:54.989Z,13.05
2022-10-18T22:16:22.070Z,13.12
2022-10-18T22:18:49.794Z,13.10
2022-10-18T22:21:19.316Z,13.09
2022-10-18T22:23:49.435Z,13.09
2022-10-18T22:26:19.244Z,13.07
2022-10-18T22:28:46.777Z,12.98
2022-10-18T22:31:22.268Z,13.03
2022-10-18T22:33:54.615Z,13.01
2022-10-18T22:36:21.554Z,12.91
2022-10-18T22:38:48.334Z,12.97
2022-10-18T22:41:15.967Z,12.94
2022-10-18T22:43:42.671Z,12.92
2022-10-18T22:46:14.010Z,12.84
2022-10-18T22:48:41.207Z,12.89
2022-10-18T22:51:09.073Z,12.86
2022-10-18T22:53:37.642Z,12.81
2022-10-18T22:56:05.563Z,12.83
2022-10-18T22:58:32.574Z,12.81
2022-10-18T23:01:06.823Z,12.81
2022-10-18T23:03:34.351Z,12.79
2022-10-18T23:06:01.036Z,12.76
2022-10-18T23:08:28.256Z,12.75
2022-10-18T23:10:58.195Z,12.72
2022-10-18T23:13:26.412Z,12.70
2022-10-18T23:15:53.614Z,12.69
2022-10-18T23:18:20.566Z,12.70
2022-10-18T23:20:47.195Z,12.70
2022-10-18T23:23:14.090Z,12.62
2022-10-18T23:25:41.006Z,12.66
2022-10-18T23:28:07.632Z,12.63
2022-10-18T23:30:34.344Z,12.62
2022-10-18T23:33:01.321Z,12.62
2022-10-18T23:35:29.341Z,12.55
2022-10-18T23:37:55.937Z,12.61
2022-10-18T23:40:22.916Z,12.59
2022-10-18T23:42:49.486Z,12.56
2022-10-18T23:45:16.230Z,12.57
2022-10-18T23:47:43.135Z,12.54
2022-10-18T23:50:10.251Z,12.44
2022-10-18T23:52:36.887Z,12.51
2022-10-18T23:55:04.160Z,12.49
2022-10-18T23:57:30.966Z,12.50
2022-10-18T23:59:57.675Z,12.49
